Time;durP1;ratioP1;P1;durP2;ratioP2;P2;SDS_P1;SDS_P2;PMS_P1;PMS_P2;Temp;Humidity;BMP_temperature;BMP_pressure;BME280_temperature;BME280_humidity;BME280_pressure;Samples;Min_cycle;Max_cycle;Signal;HPM_P1;HPM_P2
2022/08/18 00:00:33;;;;;;;0.30;0.30;;;19.20;99.90;;;;;;5004549;28;20110;-85
2022/08/18 00:03:04;;;;;;;0.30;0.30;;;19.20;99.90;;;;;;5021982;28;20856;-85
2022/08/18 00:05:30;;;;;;;0.38;0.38;;;19.20;99.90;;;;;;5018300;28;20041;-84
2022/08/18 00:07:56;;;;;;;0.30;0.30;;;19.20;99.90;;;;;;4978111;28;20041;-85
2022/08/18 00:10:23;;;;;;;0.30;0.30;;;19.10;99.90;;;;;;5004870;28;20061;-85
2022/08/18 00:12:49;;;;;;;0.40;0.40;;;19.20;99.90;;;;;;5017263;28;20037;-85
2022/08/18 00:15:16;;;;;;;0.30;0.30;;;19.10;99.90;;;;;;5001913;28;20077;-85
2022/08/18 00:17:42;;;;;;;0.30;0.30;;;19.00;99.90;;;;;;4973265;28;20038;-84
2022/08/18 00:20:12;;;;;;;0.30;0.30;;;19.00;99.90;;;;;;5017114;28;20376;-84
2022/08/18 00:22:38;;;;;;;0.30;0.30;;;19.00;99.90;;;;;;4990843;28;20500;-83
2022/08/18 00:25:06;;;;;;;0.40;0.40;;;19.00;99.90;;;;;;5020039;28;20470;-83
2022/08/18 00:27:36;;;;;;;0.32;0.32;;;19.00;99.90;;;;;;5018645;28;20060;-85
2022/08/18 00:30:05;;;;;;;0.40;0.40;;;19.00;99.90;;;;;;4994053;28;20565;-84
2022/08/18 00:32:35;;;;;;;0.30;0.30;;;19.00;99.90;;;;;;5018196;28;20050;-83
2022/08/18 00:35:27;;;;;;;0.35;0.35;;;18.90;99.90;;;;;;5020870;28;20037;-84
2022/08/18 00:37:54;;;;;;;0.30;0.30;;;18.90;99.90;;;;;;4998094;28;20680;-85
2022/08/18 00:40:27;;;;;;;0.40;0.40;;;18.80;99.90;;;;;;5000632;28;20357;-84
2022/08/18 00:42:56;;;;;;;0.30;0.30;;;18.70;99.90;;;;;;4998348;28;20050;-84
2022/08/18 00:45:28;;;;;;;0.30;0.30;;;18.70;99.90;;;;;;4993700;28;20092;-84
2022/08/18 00:47:55;;;;;;;0.40;0.40;;;18.60;99.90;;;;;;5001542;28;20057;-84
2022/08/18 00:50:33;;;;;;;0.55;0.55;;;18.50;99.90;;;;;;5027046;28;20064;-85
2022/08/18 00:53:03;;;;;;;0.30;0.30;;;18.40;99.90;;;;;;5013999;28;20079;-84
2022/08/18 00:55:31;;;;;;;0.40;0.40;;;18.40;99.90;;;;;;5027231;28;20045;-85
2022/08/18 00:58:03;;;;;;;0.40;0.40;;;18.50;99.90;;;;;;4980406;28;20094;-85
2022/08/18 01:00:28;;;;;;;0.40;0.40;;;18.50;99.90;;;;;;5012610;28;20092;-85
2022/08/18 01:02:58;;;;;;;0.30;0.30;;;18.50;99.90;;;;;;5015073;28;20132;-84
2022/08/18 01:05:32;;;;;;;0.32;0.32;;;18.50;99.90;;;;;;5031662;28;20087;-84
2022/08/18 01:07:58;;;;;;;0.40;0.40;;;18.50;99.90;;;;;;5018742;28;20056;-84
2022/08/18 01:10:24;;;;;;;0.40;0.40;;;18.60;99.90;;;;;;5016513;28;20067;-84
2022/08/18 01:12:53;;;;;;;0.30;0.30;;;18.60;99.90;;;;;;4999835;28;20076;-85
2022/08/18 01:15:21;;;;;;;0.40;0.40;;;18.50;99.90;;;;;;5019606;28;20060;-84
2022/08/18 01:23:36;;;;;;;0.32;0.32;;;18.70;99.90;;;;;;5013519;28;20057;-84
2022/08/18 01:26:03;;;;;;;0.40;0.40;;;18.70;99.90;;;;;;5032942;28;20061;-85
2022/08/18 01:28:38;;;;;;;0.32;0.32;;;18.80;99.90;;;;;;5001701;28;20053;-84
2022/08/18 01:31:05;;;;;;;0.40;0.40;;;18.70;99.90;;;;;;5019064;28;20088;-84
2022/08/18 01:33:35;;;;;;;0.30;0.30;;;18.70;99.90;;;;;;5034324;28;20083;-84
2022/08/18 01:36:15;;;;;;;0.40;0.40;;;18.80;99.90;;;;;;5032580;28;20481;-84
2022/08/18 01:38:42;;;;;;;0.30;0.30;;;18.80;99.90;;;;;;5029704;28;20809;-84
2022/08/18 01:41:08;;;;;;;0.40;0.40;;;18.80;99.90;;;;;;5034277;28;20074;-85
2022/08/18 01:43:35;;;;;;;0.30;0.30;;;18.80;99.90;;;;;;4998405;28;20049;-84
2022/08/18 01:46:03;;;;;;;0.40;0.40;;;18.90;99.90;;;;;;5029249;28;20059;-85
2022/08/18 01:48:32;;;;;;;0.35;0.35;;;18.80;99.90;;;;;;4998589;28;20060;-84
2022/08/18 01:51:02;;;;;;;0.30;0.30;;;18.80;99.90;;;;;;5015978;28;20057;-83
2022/08/18 01:53:29;;;;;;;0.30;0.30;;;18.80;99.90;;;;;;5029528;28;20118;-84
2022/08/18 01:55:54;;;;;;;0.30;0.30;;;18.80;99.90;;;;;;5029174;28;20041;-83
2022/08/18 01:58:26;;;;;;;0.40;0.40;;;18.80;99.90;;;;;;5031714;28;20041;-84
2022/08/18 02:00:55;;;;;;;0.40;0.40;;;18.70;99.90;;;;;;5030945;28;20071;-84
2022/08/18 02:03:25;;;;;;;0.30;0.30;;;18.70;99.90;;;;;;4999782;28;20662;-84
2022/08/18 02:05:57;;;;;;;0.30;0.30;;;18.60;99.90;;;;;;5033162;28;20140;-84
2022/08/18 02:08:23;;;;;;;0.40;0.40;;;18.60;99.90;;;;;;5015936;28;20134;-84
2022/08/18 02:10:48;;;;;;;0.32;0.32;;;18.60;99.90;;;;;;5013167;28;20589;-84
2022/08/18 02:13:14;;;;;;;0.30;0.30;;;18.50;99.90;;;;;;5014051;28;20048;-83
2022/08/18 02:15:41;;;;;;;0.30;0.30;;;18.40;99.90;;;;;;4998552;28;20071;-83
2022/08/18 02:18:16;;;;;;;0.30;0.30;;;18.40;99.90;;;;;;5030785;28;20053;-83
2022/08/18 02:20:42;;;;;;;0.30;0.30;;;18.40;99.90;;;;;;5029373;28;20087;-84
2022/08/18 02:23:09;;;;;;;0.30;0.30;;;18.30;99.90;;;;;;5031737;28;20065;-83
2022/08/18 02:25:35;;;;;;;0.40;0.40;;;18.40;99.90;;;;;;5014210;28;20101;-84
2022/08/18 02:28:00;;;;;;;0.40;0.40;;;18.50;99.90;;;;;;5016379;28;20056;-83
2022/08/18 02:30:26;;;;;;;0.30;0.30;;;18.50;99.90;;;;;;5015669;28;20147;-83
2022/08/18 02:32:52;;;;;;;0.40;0.40;;;18.50;99.90;;;;;;5015059;28;20076;-84
2022/08/18 02:35:17;;;;;;;0.40;0.40;;;18.50;99.90;;;;;;5035495;28;20040;-84
2022/08/18 02:37:46;;;;;;;0.30;0.30;;;18.60;99.90;;;;;;5014364;28;20110;-83
2022/08/18 02:40:14;;;;;;;0.30;0.30;;;18.60;99.90;;;;;;4995071;28;20075;-83
2022/08/18 02:42:40;;;;;;;0.40;0.40;;;18.70;99.90;;;;;;5029553;28;20052;-83
2022/08/18 02:45:07;;;;;;;0.40;0.40;;;18.70;99.90;;;;;;4995848;28;20055;-83
2022/08/18 02:47:33;;;;;;;0.30;0.30;;;18.70;99.90;;;;;;5031378;28;20176;-83
2022/08/18 02:49:58;;;;;;;0.30;0.30;;;18.70;99.90;;;;;;5033206;28;20040;-82
2022/08/18 02:52:33;;;;;;;0.40;0.40;;;18.80;99.90;;;;;;5012467;28;20072;-83
2022/08/18 02:55:02;;;;;;;0.40;0.40;;;18.80;99.90;;;;;;5031459;28;20047;-84
2022/08/18 02:57:29;;;;;;;0.40;0.40;;;18.80;99.90;;;;;;5012192;28;20041;-84
2022/08/18 02:59:55;;;;;;;0.40;0.40;;;18.80;99.90;;;;;;5031087;28;20136;-83
2022/08/18 03:02:21;;;;;;;0.38;0.38;;;18.80;99.90;;;;;;5014832;28;20052;-83
2022/08/18 03:04:47;;;;;;;0.40;0.40;;;18.80;99.90;;;;;;5012999;28;20072;-83
2022/08/18 03:07:16;;;;;;;0.50;0.50;;;18.80;99.90;;;;;;5027689;28;20595;-84
2022/08/18 03:09:42;;;;;;;0.40;0.40;;;18.90;99.90;;;;;;4999163;28;20807;-83
2022/08/18 03:12:08;;;;;;;0.30;0.30;;;18.90;99.90;;;;;;5014493;28;20044;-84
2022/08/18 03:14:36;;;;;;;0.30;0.30;;;18.90;99.90;;;;;;5016538;28;20049;-84
2022/08/18 03:17:07;;;;;;;0.40;0.40;;;18.90;99.90;;;;;;5017067;28;20036;-83
2022/08/18 03:19:33;;;;;;;0.40;0.40;;;18.90;99.90;;;;;;5031009;28;20430;-83
2022/08/18 03:21:59;;;;;;;0.40;0.40;;;18.90;99.90;;;;;;5014729;28;20041;-83
2022/08/18 03:24:26;;;;;;;0.43;0.43;;;18.90;99.90;;;;;;5033272;28;20044;-83
2022/08/18 03:26:55;;;;;;;0.30;0.30;;;19.00;99.90;;;;;;5018193;28;20101;-83
2022/08/18 03:29:22;;;;;;;0.40;0.40;;;18.90;99.90;;;;;;5016346;28;20052;-84
2022/08/18 03:31:48;;;;;;;0.40;0.40;;;18.90;99.90;;;;;;5013971;28;20073;-83
2022/08/18 03:34:15;;;;;;;0.40;0.40;;;18.90;99.90;;;;;;5029643;28;20041;-82
2022/08/18 03:36:40;;;;;;;0.40;0.40;;;18.90;99.90;;;;;;5031521;28;20044;-83
2022/08/18 03:39:11;;;;;;;0.30;0.30;;;18.80;99.90;;;;;;5028480;28;20088;-83
2022/08/18 03:41:42;;;;;;;0.30;0.30;;;18.90;99.90;;;;;;4998553;28;20041;-83
2022/08/18 03:44:09;;;;;;;0.30;0.30;;;18.90;99.90;;;;;;5015416;28;20580;-84
2022/08/18 03:46:35;;;;;;;0.40;0.40;;;18.90;99.90;;;;;;5013031;28;20120;-83
2022/08/18 03:49:01;;;;;;;0.30;0.30;;;18.90;99.90;;;;;;5010759;28;20051;-83
2022/08/18 03:51:33;;;;;;;0.40;0.40;;;18.90;99.90;;;;;;4997876;28;20069;-83
2022/08/18 03:54:01;;;;;;;0.35;0.35;;;18.90;99.90;;;;;;5018392;28;20141;-83
2022/08/18 03:56:34;;;;;;;0.40;0.40;;;18.90;99.90;;;;;;5016155;28;20045;-84
2022/08/18 03:59:03;;;;;;;0.40;0.40;;;18.90;99.90;;;;;;5022872;28;20073;-83
2022/08/18 04:01:31;;;;;;;0.30;0.30;;;19.00;99.90;;;;;;4994578;28;20042;-83
2022/08/18 04:04:01;;;;;;;0.40;0.40;;;19.00;99.90;;;;;;5020766;28;20053;-83
2022/08/18 04:06:38;;;;;;;0.35;0.35;;;18.90;99.90;;;;;;4993317;28;20050;-84
2022/08/18 04:09:06;;;;;;;0.40;0.40;;;19.00;99.90;;;;;;5007003;28;20104;-84
2022/08/18 04:11:34;;;;;;;0.40;0.40;;;19.00;99.90;;;;;;5018048;28;20049;-83
2022/08/18 04:14:00;;;;;;;0.40;0.40;;;19.00;99.90;;;;;;5018943;28;20050;-83
2022/08/18 04:16:28;;;;;;;0.40;0.40;;;19.00;99.90;;;;;;5017282;28;20050;-82
2022/08/18 04:18:56;;;;;;;0.30;0.30;;;19.00;99.90;;;;;;5020288;28;20115;-83
2022/08/18 04:21:23;;;;;;;0.30;0.30;;;19.00;99.90;;;;;;4999237;28;20061;-82
2022/08/18 04:23:48;;;;;;;0.40;0.40;;;19.00;99.90;;;;;;5001843;28;20045;-83
2022/08/18 04:26:17;;;;;;;0.35;0.35;;;18.90;99.90;;;;;;5023920;28;20076;-82
2022/08/18 04:28:43;;;;;;;0.40;0.40;;;19.00;99.90;;;;;;5014094;28;20058;-83
2022/08/18 04:31:12;;;;;;;0.40;0.40;;;19.00;99.90;;;;;;5000679;28;20128;-83
2022/08/18 04:33:39;;;;;;;0.40;0.40;;;19.00;99.90;;;;;;5001900;28;20518;-84
2022/08/18 04:36:15;;;;;;;0.30;0.30;;;19.00;99.90;;;;;;4977805;28;20053;-83
2022/08/18 04:38:41;;;;;;;0.40;0.40;;;19.00;99.90;;;;;;5017818;28;20191;-83
2022/08/18 04:41:07;;;;;;;0.30;0.30;;;19.00;99.90;;;;;;5025824;28;20516;-83
2022/08/18 04:43:33;;;;;;;0.40;0.40;;;19.00;99.90;;;;;;4981266;28;20057;-83
2022/08/18 04:46:02;;;;;;;0.40;0.40;;;19.00;99.90;;;;;;5025047;28;20049;-83
2022/08/18 04:48:40;;;;;;;0.40;0.40;;;19.00;99.90;;;;;;5019228;28;20398;-83
2022/08/18 04:51:14;;;;;;;0.40;0.40;;;19.00;99.90;;;;;;5020974;28;20057;-84
2022/08/18 04:53:46;;;;;;;0.40;0.40;;;19.00;99.90;;;;;;5016889;28;20056;-82
2022/08/18 04:56:25;;;;;;;0.38;0.38;;;19.00;99.90;;;;;;5032773;28;20667;-83
2022/08/18 04:59:09;;;;;;;0.40;0.40;;;19.00;99.90;;;;;;5015669;28;20053;-82
2022/08/18 05:01:36;;;;;;;;;;;19.00;99.90;;;;;;5003020;28;20057;-83
2022/08/18 05:04:03;;;;;;;0.30;0.30;;;19.00;99.90;;;;;;5014041;28;20553;-83
2022/08/18 05:06:29;;;;;;;0.30;0.30;;;19.10;99.90;;;;;;5020263;28;20052;-83
2022/08/18 05:08:58;;;;;;;0.30;0.30;;;19.10;99.90;;;;;;5015257;28;20045;-83
2022/08/18 05:11:27;;;;;;;0.40;0.40;;;19.10;99.90;;;;;;5001768;28;20480;-83
2022/08/18 05:13:56;;;;;;;0.32;0.32;;;19.20;99.90;;;;;;5032484;28;20519;-82
2022/08/18 05:16:23;;;;;;;0.40;0.40;;;19.20;99.90;;;;;;5035786;28;20049;-82
2022/08/18 05:18:49;;;;;;;0.40;0.40;;;19.30;99.90;;;;;;5019447;28;20076;-83
2022/08/18 05:21:15;;;;;;;0.40;0.40;;;19.20;99.90;;;;;;5018357;28;20235;-83
2022/08/18 05:23:46;;;;;;;0.40;0.40;;;19.20;99.90;;;;;;5017013;28;20640;-84
2022/08/18 05:26:13;;;;;;;0.45;0.45;;;19.20;99.90;;;;;;5031991;28;20060;-83
2022/08/18 05:28:40;;;;;;;0.50;0.50;;;19.20;99.90;;;;;;5002738;28;20047;-83
2022/08/18 05:31:14;;;;;;;0.30;0.30;;;19.30;99.90;;;;;;5031957;28;20051;-83
2022/08/18 05:33:41;;;;;;;0.40;0.40;;;19.40;99.90;;;;;;5015976;28;20041;-82
2022/08/18 05:36:25;;;;;;;0.30;0.30;;;19.30;99.90;;;;;;5017268;28;20490;-82
2022/08/18 05:38:58;;;;;;;0.30;0.30;;;19.40;99.90;;;;;;5035405;28;20932;-83
2022/08/18 05:41:32;;;;;;;0.40;0.40;;;19.50;99.90;;;;;;5032784;28;20095;-83
2022/08/18 05:43:59;;;;;;;0.40;0.40;;;19.50;99.90;;;;;;5014930;28;20047;-82
2022/08/18 05:46:39;;;;;;;0.32;0.32;;;19.50;99.90;;;;;;5034563;28;20052;-82
2022/08/18 05:49:05;;;;;;;0.30;0.30;;;19.50;99.90;;;;;;5030937;28;20052;-83
2022/08/18 05:51:44;;;;;;;0.40;0.40;;;19.50;99.90;;;;;;5039234;28;20056;-83
2022/08/18 05:57:01;;;;;;;0.40;0.40;;;19.50;99.90;;;;;;5016895;28;20053;-82
2022/08/18 05:59:39;;;;;;;0.43;0.43;;;19.60;99.90;;;;;;5032307;28;20554;-82
2022/08/18 06:02:39;;;;;;;0.40;0.40;;;19.70;99.90;;;;;;5017163;28;20053;-83
2022/08/18 06:05:19;;;;;;;0.30;0.30;;;19.70;99.90;;;;;;5014474;28;20060;-83
2022/08/18 06:07:57;;;;;;;0.30;0.30;;;19.80;99.90;;;;;;5015181;28;20075;-83
2022/08/18 06:10:24;;;;;;;0.40;0.40;;;19.80;99.90;;;;;;5015401;28;20250;-83
2022/08/18 06:12:54;;;;;;;0.40;0.40;;;19.80;99.90;;;;;;5033590;28;20517;-83
2022/08/18 06:15:35;;;;;;;0.40;0.40;;;19.80;99.90;;;;;;5030748;28;20560;-84
2022/08/18 06:18:09;;;;;;;0.40;0.40;;;19.90;99.90;;;;;;5015578;28;20041;-83
2022/08/18 06:20:41;;;;;;;0.40;0.40;;;20.00;99.90;;;;;;5016951;28;20051;-82
2022/08/18 06:23:39;;;;;;;0.40;0.40;;;20.00;99.90;;;;;;5014370;28;20087;-83
2022/08/18 06:26:18;;;;;;;0.40;0.40;;;20.10;99.90;;;;;;5012031;28;20053;-82
2022/08/18 06:29:20;;;;;;;0.40;0.40;;;20.10;99.90;;;;;;5016645;28;20163;-82
2022/08/18 06:32:14;;;;;;;0.40;0.40;;;20.10;99.90;;;;;;5029865;28;20135;-84
2022/08/18 06:34:52;;;;;;;0.40;0.40;;;20.10;99.90;;;;;;5014402;28;20215;-82
2022/08/18 06:38:37;;;;;;;0.40;0.40;;;20.10;99.90;;;;;;5015345;28;20052;-81
2022/08/18 06:40:26;;;;;;;0.30;0.30;;;20.10;99.90;;;;;;5016077;28;20132;-82
2022/08/18 06:42:52;;;;;;;0.30;0.30;;;20.20;99.90;;;;;;5019807;28;20140;-82
2022/08/18 06:45:23;;;;;;;0.30;0.30;;;20.30;99.90;;;;;;5031787;28;20055;-81
2022/08/18 06:47:58;;;;;;;0.32;0.32;;;20.30;99.90;;;;;;5034241;28;20099;-83
2022/08/18 06:50:37;;;;;;;0.40;0.40;;;20.30;99.90;;;;;;5014205;28;20049;-82
2022/08/18 06:53:06;;;;;;;0.40;0.40;;;20.40;99.90;;;;;;5031558;28;20138;-81
2022/08/18 06:55:39;;;;;;;0.40;0.40;;;20.50;99.90;;;;;;4999919;28;20061;-83
2022/08/18 06:58:12;;;;;;;0.40;0.40;;;20.60;99.90;;;;;;5029333;28;20105;-82
2022/08/18 07:00:41;;;;;;;0.35;0.35;;;20.70;99.90;;;;;;5018871;28;20589;-83
2022/08/18 07:03:13;;;;;;;0.40;0.40;;;20.80;99.90;;;;;;5029865;28;20537;-83
2022/08/18 07:06:01;;;;;;;0.40;0.40;;;20.90;99.90;;;;;;5031803;28;20080;-82
2022/08/18 07:08:43;;;;;;;0.30;0.30;;;21.00;99.90;;;;;;5014629;28;20049;-82
2022/08/18 07:11:22;;;;;;;0.30;0.30;;;21.00;99.90;;;;;;5031918;28;20711;-83
2022/08/18 07:13:52;;;;;;;0.30;0.30;;;21.00;99.90;;;;;;5034850;28;20053;-83
2022/08/18 07:16:30;;;;;;;0.30;0.30;;;21.10;99.90;;;;;;5016297;28;20509;-83
2022/08/18 07:19:20;;;;;;;0.32;0.32;;;21.10;99.90;;;;;;5035858;28;20791;-82
2022/08/18 07:22:07;;;;;;;0.30;0.30;;;21.70;99.90;;;;;;5015767;28;20478;-84
2022/08/18 07:24:38;;;;;;;0.30;0.30;;;21.90;99.90;;;;;;4999031;28;20565;-85
2022/08/18 07:27:07;;;;;;;0.30;0.30;;;22.20;99.90;;;;;;5029517;28;21190;-84
2022/08/18 07:29:36;;;;;;;0.30;0.30;;;22.30;99.90;;;;;;5031484;28;20053;-83
2022/08/18 07:32:19;;;;;;;0.40;0.40;;;22.20;99.90;;;;;;5011258;28;20864;-81
2022/08/18 07:34:53;;;;;;;0.28;0.28;;;22.20;99.90;;;;;;5034052;28;20044;-83
2022/08/18 07:37:50;;;;;;;0.30;0.30;;;22.40;99.90;;;;;;5031166;28;20504;-82
2022/08/18 07:40:26;;;;;;;0.30;0.30;;;22.20;99.90;;;;;;5013826;28;20057;-81
2022/08/18 07:43:00;;;;;;;0.30;0.30;;;22.20;99.90;;;;;;5013830;28;20040;-82
2022/08/18 07:45:41;;;;;;;0.30;0.30;;;22.10;99.90;;;;;;5031995;28;20036;-82
2022/08/18 07:48:18;;;;;;;0.30;0.30;;;22.10;99.90;;;;;;5031136;28;20041;-82
2022/08/18 07:50:44;;;;;;;0.30;0.30;;;22.20;99.90;;;;;;5012355;28;20053;-82
2022/08/18 07:53:45;;;;;;;0.30;0.30;;;22.20;99.90;;;;;;4995347;28;20078;-81
2022/08/18 07:56:36;;;;;;;0.30;0.30;;;22.30;99.90;;;;;;5012055;28;20050;-82
2022/08/18 07:59:18;;;;;;;0.30;0.30;;;22.00;99.90;;;;;;5010310;28;20060;-82
2022/08/18 08:01:56;;;;;;;0.30;0.30;;;21.80;99.90;;;;;;4991974;28;20040;-82
2022/08/18 08:04:28;;;;;;;0.30;0.30;;;21.70;99.90;;;;;;5026274;28;20053;-82
2022/08/18 08:07:04;;;;;;;0.30;0.30;;;21.70;99.90;;;;;;5007992;28;20048;-82
2022/08/18 08:09:51;;;;;;;0.30;0.30;;;21.90;99.90;;;;;;5004674;28;20057;-83
2022/08/18 08:12:44;;;;;;;0.30;0.30;;;22.10;99.90;;;;;;5030158;28;20044;-81
2022/08/18 08:15:52;;;;;;;0.30;0.30;;;22.30;99.90;;;;;;5028302;28;20044;-82
2022/08/18 08:18:29;;;;;;;0.30;0.30;;;22.40;99.90;;;;;;5012939;28;20397;-83
2022/08/18 08:20:57;;;;;;;0.40;0.40;;;22.30;99.90;;;;;;5030572;28;20054;-81
2022/08/18 08:23:36;;;;;;;0.30;0.30;;;22.60;99.90;;;;;;5011676;28;20053;-81
2022/08/18 08:26:07;;;;;;;0.30;0.30;;;22.50;99.90;;;;;;5013237;28;20098;-82
2022/08/18 08:28:33;;;;;;;0.30;0.30;;;22.40;99.90;;;;;;5014740;28;20087;-82
2022/08/18 08:31:10;;;;;;;0.30;0.30;;;22.20;99.90;;;;;;5031427;28;20132;-82
2022/08/18 08:33:44;;;;;;;0.30;0.30;;;22.20;99.90;;;;;;5011389;28;20107;-82
2022/08/18 08:36:17;;;;;;;0.30;0.30;;;22.20;99.90;;;;;;5030674;28;20088;-83
2022/08/18 08:38:45;;;;;;;;;;;22.10;99.90;;;;;;5013986;28;20049;-83
2022/08/18 08:41:31;;;;;;;0.30;0.30;;;22.00;99.90;;;;;;5029588;28;19925;-82
2022/08/18 08:44:12;;;;;;;0.30;0.30;;;22.10;99.90;;;;;;5032572;28;20560;-82
2022/08/18 08:46:50;;;;;;;0.30;0.30;;;22.10;99.90;;;;;;5011247;28;20336;-82
2022/08/18 08:49:41;;;;;;;0.30;0.30;;;22.20;99.90;;;;;;5032854;28;20525;-81
2022/08/18 08:52:13;;;;;;;0.30;0.30;;;22.20;99.90;;;;;;5028251;28;20049;-82
2022/08/18 08:55:07;;;;;;;0.30;0.30;;;22.30;99.90;;;;;;5010665;28;20049;-82
2022/08/18 08:57:41;;;;;;;0.30;0.30;;;22.50;99.90;;;;;;5030064;28;20110;-83
2022/08/18 09:00:10;;;;;;;0.40;0.40;;;22.80;99.90;;;;;;5011674;28;20462;-82
2022/08/18 09:03:01;;;;;;;0.30;0.30;;;22.90;99.90;;;;;;5031925;28;20579;-83
2022/08/18 09:05:43;;;;;;;0.30;0.30;;;23.00;99.90;;;;;;5031416;28;20063;-83
2022/08/18 09:08:46;;;;;;;0.30;0.30;;;23.10;99.90;;;;;;5012682;28;20105;-81
2022/08/18 09:11:38;;;;;;;0.30;0.30;;;23.10;99.90;;;;;;5032886;28;20049;-82
2022/08/18 09:14:23;;;;;;;0.30;0.30;;;23.00;99.90;;;;;;5013218;28;20049;-81
2022/08/18 09:17:16;;;;;;;0.30;0.30;;;23.10;99.90;;;;;;5016211;28;20135;-82
2022/08/18 09:20:11;;;;;;;0.30;0.30;;;23.10;99.90;;;;;;5010770;28;20465;-83
2022/08/18 09:22:36;;;;;;;;;;;23.00;99.90;;;;;;5038794;28;20048;-85
2022/08/18 09:25:10;;;;;;;0.30;0.30;;;23.00;99.90;;;;;;5016097;28;20505;-83
2022/08/18 09:27:45;;;;;;;0.30;0.30;;;22.80;99.90;;;;;;5014471;28;20060;-85
2022/08/18 09:30:45;;;;;;;0.30;0.30;;;22.80;99.90;;;;;;5013987;28;20140;-83
2022/08/18 09:33:21;;;;;;;0.30;0.30;;;22.60;99.90;;;;;;5017256;28;20497;-82
2022/08/18 09:36:14;;;;;;;0.30;0.30;;;22.60;99.90;;;;;;5021520;28;20044;-82
2022/08/18 09:41:50;;;;;;;0.30;0.30;;;22.60;99.90;;;;;;5016512;28;20551;-81
2022/08/18 09:44:45;;;;;;;0.30;0.30;;;22.50;99.90;;;;;;5022809;28;20049;-83
2022/08/18 09:47:32;;;;;;;0.30;0.30;;;22.60;99.90;;;;;;5008269;28;20116;-81
2022/08/18 09:50:04;;;;;;;0.30;0.30;;;22.50;99.90;;;;;;5031674;28;20626;-83
2022/08/18 09:52:32;;;;;;;0.30;0.30;;;22.50;99.90;;;;;;4996035;28;20050;-83
2022/08/18 09:54:58;;;;;;;0.30;0.30;;;22.30;99.90;;;;;;5007606;28;20061;-82
2022/08/18 09:57:30;;;;;;;0.30;0.30;;;22.30;99.90;;;;;;4992349;28;20057;-82
2022/08/18 10:00:24;;;;;;;0.30;0.30;;;22.20;99.90;;;;;;5006393;28;20045;-82
2022/08/18 10:02:50;;;;;;;0.30;0.30;;;22.20;99.90;;;;;;5005326;28;20085;-83
2022/08/18 10:05:16;;;;;;;0.30;0.30;;;22.30;99.90;;;;;;4996608;28;20191;-82
2022/08/18 10:07:43;;;;;;;0.30;0.30;;;22.30;99.90;;;;;;4972902;28;20050;-82
2022/08/18 10:10:21;;;;;;;0.30;0.30;;;22.30;99.90;;;;;;5010273;28;20141;-82
2022/08/18 10:13:21;;;;;;;0.30;0.30;;;22.50;99.90;;;;;;5004764;28;20505;-82
2022/08/18 10:16:11;;;;;;;0.45;0.30;;;22.60;99.90;;;;;;5004813;28;20053;-84
2022/08/18 10:18:59;;;;;;;0.30;0.30;;;22.80;99.90;;;;;;5005584;28;20085;-84
2022/08/18 10:21:48;;;;;;;0.30;0.30;;;22.80;99.90;;;;;;4994843;28;20061;-83
2022/08/18 10:24:18;;;;;;;0.30;0.30;;;22.80;99.90;;;;;;4974193;28;20050;-85
2022/08/18 10:26:49;;;;;;;0.30;0.30;;;23.00;99.90;;;;;;4988858;28;20053;-82
2022/08/18 10:29:27;;;;;;;0.38;0.38;;;23.20;99.90;;;;;;5001955;28;20077;-81
2022/08/18 10:31:56;;;;;;;0.30;0.30;;;23.30;99.90;;;;;;5008690;28;20145;-83
2022/08/18 10:34:48;;;;;;;0.30;0.30;;;23.20;99.90;;;;;;4989502;28;20069;-84
2022/08/18 10:37:35;;;;;;;0.30;0.30;;;23.40;99.90;;;;;;4993767;28;20050;-83
2022/08/18 10:40:07;;;;;;;0.30;0.30;;;23.40;99.90;;;;;;4992892;28;20058;-83
2022/08/18 10:42:36;;;;;;;0.30;0.30;;;23.10;99.90;;;;;;4995934;28;20440;-81
2022/08/18 10:45:09;;;;;;;0.30;0.30;;;23.20;99.90;;;;;;4993776;28;20053;-82
2022/08/18 10:47:35;;;;;;;0.30;0.30;;;23.40;99.90;;;;;;4990310;28;21235;-84
2022/08/18 10:50:08;;;;;;;0.30;0.30;;;23.30;99.90;;;;;;5011808;28;20112;-81
2022/08/18 10:53:08;;;;;;;0.30;0.30;;;23.60;99.90;;;;;;5027653;28;20596;-83
2022/08/18 10:56:18;;;;;;;0.30;0.30;;;23.50;99.90;;;;;;5014174;28;20061;-82
2022/08/18 10:58:56;;;;;;;0.30;0.30;;;23.30;99.90;;;;;;5013937;28;20052;-82
2022/08/18 11:01:25;;;;;;;0.30;0.30;;;23.30;99.90;;;;;;5016528;28;20546;-82
2022/08/18 11:04:20;;;;;;;0.30;0.30;;;23.40;99.90;;;;;;5016669;28;20145;-83
2022/08/18 11:06:49;;;;;;;0.30;0.30;;;23.60;99.90;;;;;;5032104;28;20055;-81
2022/08/18 11:09:25;;;;;;;0.30;0.30;;;23.40;99.90;;;;;;5029302;28;20045;-83
2022/08/18 11:11:52;;;;;;;0.30;0.30;;;23.40;99.90;;;;;;5026779;28;20135;-82
2022/08/18 11:14:27;;;;;;;0.30;0.30;;;23.20;99.90;;;;;;5031709;28;20052;-82
2022/08/18 11:17:07;;;;;;;0.30;0.30;;;22.80;99.90;;;;;;4986470;28;20068;-82
2022/08/18 11:19:39;;;;;;;0.30;0.30;;;22.60;99.90;;;;;;5026147;28;20099;-82
2022/08/18 11:22:05;;;;;;;0.30;0.30;;;22.50;99.90;;;;;;5029078;28;20567;-82
2022/08/18 11:24:34;;;;;;;0.30;0.30;;;22.40;99.90;;;;;;5029353;28;20080;-82
2022/08/18 11:27:16;;;;;;;0.30;0.30;;;22.40;99.90;;;;;;5027016;28;21048;-83
2022/08/18 11:29:42;;;;;;;0.30;0.30;;;22.50;99.90;;;;;;5008760;28;20134;-82
2022/08/18 11:32:30;;;;;;;0.30;0.30;;;22.50;99.90;;;;;;5011841;28;20786;-83
2022/08/18 11:34:58;;;;;;;0.30;0.30;;;22.50;99.90;;;;;;5013047;28;20045;-83
2022/08/18 11:37:42;;;;;;;0.30;0.30;;;22.50;99.90;;;;;;5027013;28;20060;-82
2022/08/18 11:40:30;;;;;;;0.30;0.30;;;22.50;99.90;;;;;;5015920;28;20084;-82
2022/08/18 11:43:10;;;;;;;0.30;0.30;;;22.50;99.90;;;;;;4997066;28;20525;-82
2022/08/18 11:45:53;;;;;;;0.30;0.30;;;22.40;99.90;;;;;;5023935;28;20471;-82
2022/08/18 11:48:19;;;;;;;0.30;0.30;;;22.40;99.90;;;;;;5024354;28;20111;-82
2022/08/18 11:51:10;;;;;;;0.30;0.30;;;22.50;99.90;;;;;;5010606;28;20056;-82
2022/08/18 11:53:48;;;;;;;0.30;0.30;;;22.50;99.90;;;;;;5001780;28;20144;-84
2022/08/18 11:56:19;;;;;;;0.30;0.30;;;22.60;99.90;;;;;;5011018;28;20134;-89
2022/08/18 11:58:52;;;;;;;0.30;0.30;;;22.50;99.90;;;;;;5017689;28;20132;-91
2022/08/18 12:01:43;;;;;;;0.30;0.30;;;22.40;99.90;;;;;;5021450;28;20060;-91
2022/08/18 12:04:12;;;;;;;0.30;0.30;;;22.20;99.90;;;;;;5012724;28;20084;-88
2022/08/18 12:06:39;;;;;;;0.30;0.30;;;21.60;99.90;;;;;;5013902;28;20181;-89
2022/08/18 12:09:31;;;;;;;0.30;0.30;;;21.30;99.90;;;;;;5020283;28;20044;-91
2022/08/18 12:12:21;;;;;;;0.30;0.30;;;21.20;99.90;;;;;;5008245;28;20060;-90
2022/08/18 12:15:12;;;;;;;0.30;0.30;;;21.10;99.90;;;;;;5007163;28;20040;-92
2022/08/18 12:17:43;;;;;;;0.30;0.30;;;21.10;99.90;;;;;;5006859;28;20059;-89
2022/08/18 12:20:09;;;;;;;0.20;0.20;;;21.30;99.90;;;;;;5015882;28;20045;-90
2022/08/18 12:22:37;;;;;;;0.32;0.32;;;21.30;99.90;;;;;;5012518;28;20052;-91
2022/08/18 12:25:10;;;;;;;0.30;0.30;;;21.60;99.90;;;;;;5010228;28;20490;-92
2022/08/18 12:27:36;;;;;;;0.30;0.30;;;21.70;99.90;;;;;;5011056;28;20156;-91
2022/08/18 12:30:03;;;;;;;0.40;0.40;;;21.70;99.90;;;;;;5026298;28;20129;-92
2022/08/18 12:32:32;;;;;;;0.30;0.30;;;21.80;99.90;;;;;;5005228;28;20501;-93
2022/08/18 12:34:59;;;;;;;0.30;0.30;;;21.90;99.90;;;;;;5014306;28;20045;-95
2022/08/18 12:37:27;;;;;;;0.30;0.30;;;21.70;99.90;;;;;;5012794;28;20041;-94
2022/08/18 12:39:54;;;;;;;0.30;0.30;;;22.00;99.90;;;;;;5021436;28;20045;-95
2022/08/18 12:42:20;;;;;;;0.30;0.30;;;22.20;99.90;;;;;;5015344;28;20053;-94
2022/08/18 12:44:46;;;;;;;0.30;0.30;;;22.40;99.90;;;;;;5015869;28;20045;-94
2022/08/18 12:47:23;;;;;;;0.30;0.30;;;22.40;99.90;;;;;;5006995;28;20060;-90
2022/08/18 12:49:50;;;;;;;0.30;0.30;;;22.40;99.90;;;;;;5008569;28;20122;-92
2022/08/18 12:52:19;;;;;;;0.30;0.30;;;22.30;99.90;;;;;;5021044;28;20140;-95
2022/08/18 12:54:45;;;;;;;0.30;0.30;;;22.10;99.90;;;;;;5012695;28;20048;-92
2022/08/18 12:57:28;;;;;;;0.30;0.30;;;22.30;99.90;;;;;;4995140;28;20044;-93
2022/08/18 12:59:54;;;;;;;0.30;0.30;;;22.50;99.90;;;;;;5012784;28;20044;-91
2022/08/18 13:02:21;;;;;;;0.30;0.30;;;23.20;99.90;;;;;;4987527;28;20056;-91
2022/08/18 13:04:46;;;;;;;0.30;0.30;;;23.20;99.90;;;;;;4994616;28;20055;-92
2022/08/18 13:07:14;;;;;;;0.30;0.30;;;24.00;99.90;;;;;;4990532;28;20049;-88
2022/08/18 13:09:41;;;;;;;0.30;0.30;;;23.90;99.90;;;;;;5016093;28;20041;-84
2022/08/18 13:12:08;;;;;;;0.30;0.30;;;23.30;99.90;;;;;;5041826;28;20052;-89
2022/08/18 13:14:34;;;;;;;0.30;0.30;;;23.40;99.90;;;;;;5040478;28;20087;-87
2022/08/18 13:17:02;;;;;;;0.30;0.30;;;23.50;99.90;;;;;;5021985;28;20056;-92
2022/08/18 13:27:45;;;;;;;0.30;0.30;;;25.10;99.90;;;;;;5093347;27;1979081;-84
2022/08/18 13:30:15;;;;;;;0.30;0.30;;;24.80;99.90;;;;;;5121076;27;20035;-85
2022/08/18 13:32:41;;;;;;;0.30;0.30;;;25.00;99.90;;;;;;5121376;27;20046;-80
2022/08/18 13:35:07;;;;;;;0.30;0.30;;;24.70;99.90;;;;;;5141117;27;20039;-83
2022/08/18 13:37:33;;;;;;;0.30;0.30;;;24.10;99.90;;;;;;5130165;27;20491;-83
2022/08/18 13:39:59;;;;;;;0.30;0.30;;;24.70;99.90;;;;;;5121397;27;20046;-84